Time;durP1;ratioP1;P1;durP2;ratioP2;P2;SDS_P1;SDS_P2;PMS_P1;PMS_P2;Temp;Humidity;BMP_temperature;BMP_pressure;BME280_temperature;BME280_humidity;BME280_pressure;Samples;Min_cycle;Max_cycle;Signal;HPM_P1;HPM_P2
2024/03/22 00:00:42;;;;;;;8.90;5.87;;;9.00;99.90;8.90;101151.00;;;;4881814;28;87245;-64
2024/03/22 02:03:13;;;;;;;7.03;4.27;;;7.90;99.90;7.70;101046.00;;;;4866774;28;89467;-64
2024/03/22 02:05:39;;;;;;;5.93;4.87;;;7.90;99.90;7.70;101048.00;;;;4869856;28;119005;-63
2024/03/22 02:08:05;;;;;;;7.80;5.60;;;7.80;99.90;7.70;101043.00;;;;4878330;28;117745;-63
2024/03/22 02:10:31;;;;;;;6.67;4.80;;;7.80;99.90;7.70;101042.00;;;;4881122;28;87806;-63
2024/03/22 02:12:57;;;;;;;6.17;4.23;;;7.90;99.90;7.70;101037.00;;;;4877734;28;108889;-63
2024/03/22 02:15:23;;;;;;;5.07;4.13;;;7.80;99.90;7.70;101035.00;;;;4876925;28;117584;-63
2024/03/22 02:17:48;;;;;;;4.07;3.57;;;7.80;99.90;7.70;101033.00;;;;4878203;28;116525;-63
2024/03/22 02:20:14;;;;;;;4.60;3.83;;;8.10;99.90;7.70;101022.00;;;;4877423;28;109148;-63
2024/03/22 02:22:40;;;;;;;5.10;3.60;;;7.80;99.90;7.70;101020.00;;;;4881188;28;108795;-63
2024/03/22 02:25:07;;;;;;;7.13;4.00;;;7.80;99.90;7.70;101021.00;;;;4878416;28;117304;-64
2024/03/22 02:27:34;;;;;;;14.10;4.80;;;7.80;99.90;7.70;101018.00;;;;4878693;28;88123;-63
2024/03/22 02:29:59;;;;;;;6.50;4.07;;;7.80;99.90;7.60;101021.00;;;;4883552;28;88888;-63
2024/03/22 02:32:25;;;;;;;7.47;4.33;;;7.80;99.90;7.60;101015.00;;;;4879476;28;87801;-63
2024/03/22 02:34:51;;;;;;;5.20;3.90;;;7.80;99.90;7.60;100999.00;;;;4879610;28;122282;-63
2024/03/22 02:37:16;;;;;;;9.13;6.10;;;7.80;99.90;7.60;101007.00;;;;4877442;28;116108;-63
2024/03/22 02:39:42;;;;;;;7.67;5.13;;;7.80;99.90;7.60;100988.00;;;;4877494;28;108870;-64
2024/03/22 02:42:08;;;;;;;9.80;4.97;;;7.70;99.90;7.60;100995.00;;;;4879636;28;87646;-63
2024/03/22 02:44:34;;;;;;;7.23;4.43;;;7.70;99.90;7.60;100992.00;;;;4881212;28;106975;-63
2024/03/22 02:47:00;;;;;;;5.73;3.77;;;7.70;99.90;7.60;100995.00;;;;4878962;28;100096;-63
2024/03/22 02:49:25;;;;;;;5.40;4.03;;;7.70;99.90;7.50;100991.00;;;;4879857;28;110462;-63
2024/03/22 02:51:51;;;;;;;6.83;4.83;;;7.60;99.90;7.50;100984.00;;;;4878716;28;109080;-63
2024/03/22 02:54:17;;;;;;;7.40;4.60;;;8.50;99.90;7.50;100995.00;;;;4876700;28;119482;-63
2024/03/22 02:56:42;;;;;;;6.37;3.77;;;7.60;99.90;7.50;100985.00;;;;4881707;28;119604;-63
2024/03/22 02:59:08;;;;;;;8.30;5.00;;;8.00;99.90;7.50;100988.00;;;;4877697;28;110490;-64
2024/03/22 03:01:34;;;;;;;6.43;4.80;;;7.90;99.90;7.50;100987.00;;;;4875543;28;109400;-63
2024/03/22 03:03:59;;;;;;;10.00;5.17;;;7.70;99.90;7.50;100985.00;;;;4879288;28;117820;-62
2024/03/22 03:06:25;;;;;;;7.60;4.20;;;7.60;99.90;7.50;100977.00;;;;4875621;28;116932;-62
2024/03/22 03:08:51;;;;;;;4.90;4.37;;;7.60;99.90;7.50;100975.00;;;;4880494;28;108858;-63
2024/03/22 03:11:16;;;;;;;7.63;5.40;;;7.60;99.90;7.50;100975.00;;;;4881242;28;107756;-62
2024/03/22 03:13:42;;;;;;;11.43;5.57;;;7.80;99.90;7.50;100973.00;;;;4875913;28;117817;-63
2024/03/22 03:16:07;;;;;;;7.40;4.97;;;7.70;99.90;7.50;100969.00;;;;4878233;28;116426;-62
2024/03/22 03:18:33;;;;;;;7.83;5.10;;;7.70;99.90;7.50;100982.00;;;;4880321;28;109215;-62
2024/03/22 03:20:59;;;;;;;9.03;5.53;;;7.70;99.90;7.60;100972.00;;;;4877149;28;98038;-64
2024/03/22 03:23:24;;;;;;;6.93;4.30;;;7.70;99.90;7.60;100976.00;;;;4876884;28;117333;-64
2024/03/22 03:25:50;;;;;;;4.90;4.33;;;7.60;99.90;7.60;100967.00;;;;4876433;28;116596;-64
2024/03/22 03:28:16;;;;;;;8.20;5.73;;;7.70;99.90;7.60;100965.00;;;;4875836;28;110012;-63
2024/03/22 03:30:42;;;;;;;6.57;4.40;;;7.70;99.90;7.60;100952.00;;;;4884439;28;109289;-63
2024/03/22 03:33:07;;;;;;;11.37;5.27;;;7.70;99.90;7.50;100942.00;;;;4883454;28;110685;-64
2024/03/22 03:35:33;;;;;;;6.10;4.00;;;7.70;99.90;7.50;100945.00;;;;4880808;28;116012;-63
2024/03/22 03:37:59;;;;;;;10.57;5.93;;;7.70;99.90;7.50;100944.00;;;;4882340;28;111067;-63
2024/03/22 03:40:26;;;;;;;9.10;6.17;;;7.60;99.90;7.50;100944.00;;;;4875179;28;107574;-64
2024/03/22 03:42:52;;;;;;;6.20;5.17;;;7.60;99.90;7.50;100940.00;;;;4878017;28;90284;-62
2024/03/22 03:45:17;;;;;;;7.07;4.07;;;7.70;99.90;7.50;100935.00;;;;4877717;28;118420;-63
2024/03/22 03:47:43;;;;;;;7.40;3.50;;;7.60;99.90;7.50;100935.00;;;;4883119;28;110513;-64
2024/03/22 03:50:09;;;;;;;8.97;4.83;;;7.70;99.90;7.50;100940.00;;;;4875417;28;107991;-63
2024/03/22 03:52:35;;;;;;;6.47;4.47;;;7.60;99.90;7.50;100950.00;;;;4876970;28;88228;-62
2024/03/22 03:55:00;;;;;;;6.63;4.10;;;7.70;99.90;7.60;100940.00;;;;4878400;28;88980;-61
2024/03/22 03:57:26;;;;;;;6.93;4.40;;;7.90;99.90;7.60;100943.00;;;;4880217;28;88149;-65
2024/03/22 03:59:52;;;;;;;8.87;5.13;;;7.70;99.90;7.60;100926.00;;;;4874747;28;109264;-63
2024/03/22 04:02:17;;;;;;;6.43;4.43;;;7.70;99.90;7.60;100935.00;;;;4877169;28;100824;-63
2024/03/22 04:04:43;;;;;;;6.57;4.60;;;7.70;99.90;7.60;100928.00;;;;4873709;28;116287;-63
2024/03/22 04:07:09;;;;;;;8.47;4.53;;;7.70;99.90;7.60;100930.00;;;;4876297;28;111714;-63
2024/03/22 04:09:34;;;;;;;9.43;4.50;;;7.70;99.90;7.60;100923.00;;;;4877203;28;108427;-63
2024/03/22 04:12:00;;;;;;;10.07;5.07;;;7.80;99.90;7.60;100920.00;;;;4875850;28;117817;-62
2024/03/22 04:14:26;;;;;;;7.63;4.47;;;7.80;99.90;7.50;100912.00;;;;4877640;28;104368;-62
2024/03/22 04:16:54;;;;;;;8.63;4.73;;;7.70;99.90;7.50;100910.00;;;;4878644;28;87675;-63
2024/03/22 04:19:20;;;;;;;7.87;4.83;;;7.70;99.90;7.50;100909.00;;;;4873333;28;88111;-62
2024/03/22 04:21:46;;;;;;;7.67;5.33;;;7.70;99.90;7.50;100902.00;;;;4882262;28;99186;-63
2024/03/22 04:24:12;;;;;;;5.93;4.30;;;7.60;99.90;7.50;100899.00;;;;4875472;28;99359;-62
2024/03/22 04:26:38;;;;;;;8.90;5.07;;;7.60;99.90;7.40;100906.00;;;;4877443;28;111931;-62
2024/03/22 04:29:03;;;;;;;8.23;5.00;;;7.70;99.90;7.40;100899.00;;;;4883216;28;108286;-63
2024/03/22 04:31:29;;;;;;;8.90;4.47;;;7.50;99.90;7.40;100889.00;;;;4878497;28;119214;-63
2024/03/22 04:33:55;;;;;;;5.43;4.13;;;7.80;99.90;7.40;100878.00;;;;4880768;28;119480;-64
2024/03/22 04:36:21;;;;;;;6.10;4.67;;;7.50;99.90;7.40;100883.00;;;;4880091;28;93704;-63
2024/03/22 04:38:47;;;;;;;7.73;5.33;;;7.70;99.90;7.40;100871.00;;;;4881661;28;87791;-63
2024/03/22 04:41:13;;;;;;;5.90;4.63;;;7.50;99.90;7.40;100871.00;;;;4883387;28;109564;-64
2024/03/22 04:43:38;;;;;;;11.43;5.33;;;7.60;99.90;7.40;100872.00;;;;4881058;28;115114;-63
2024/03/22 04:46:04;;;;;;;6.80;4.90;;;7.60;99.90;7.40;100872.00;;;;4881543;28;105517;-63
2024/03/22 04:48:30;;;;;;;6.83;5.37;;;7.60;99.90;7.40;100860.00;;;;4881948;28;108371;-63
2024/03/22 04:50:56;;;;;;;6.33;4.47;;;7.60;99.90;7.40;100861.00;;;;4882455;28;87811;-63
2024/03/22 04:53:21;;;;;;;8.07;4.50;;;7.50;99.90;7.40;100856.00;;;;4880428;28;88575;-63
2024/03/22 04:55:48;;;;;;;6.77;4.77;;;7.60;99.90;7.40;100854.00;;;;4878697;28;89007;-63
2024/03/22 04:58:19;;;;;;;7.43;5.40;;;7.60;99.90;7.40;100845.00;;;;4882764;28;87883;-63
2024/03/22 05:00:45;;;;;;;5.97;4.90;;;7.60;99.90;7.40;100846.00;;;;4879760;28;88657;-63
2024/03/22 05:03:11;;;;;;;8.27;5.30;;;7.60;99.90;7.40;100849.00;;;;4878990;28;88755;-64
2024/03/22 05:05:38;;;;;;;7.33;5.40;;;7.60;99.90;7.40;100844.00;;;;4879543;28;108397;-63
2024/03/22 05:08:05;;;;;;;9.30;5.80;;;7.50;99.90;7.50;100835.00;;;;4880881;28;87780;-63
2024/03/22 05:10:31;;;;;;;11.40;7.63;;;7.60;99.90;7.50;100831.00;;;;4879252;28;105441;-62
2024/03/22 05:12:57;;;;;;;5.10;4.03;;;7.60;99.90;7.50;100817.00;;;;4879696;28;89166;-63
2024/03/22 05:15:26;;;;;;;10.13;5.13;;;7.70;99.90;7.50;100823.00;;;;4879700;28;100886;-63
2024/03/22 05:17:53;;;;;;;8.10;5.27;;;7.70;99.90;7.60;100817.00;;;;4882244;28;87967;-63
2024/03/22 05:20:19;;;;;;;7.27;5.60;;;7.70;99.90;7.60;100821.00;;;;4880243;28;93326;-63
2024/03/22 05:22:45;;;;;;;7.07;4.40;;;7.70;99.90;7.60;100826.00;;;;4879103;28;110379;-64
2024/03/22 05:25:12;;;;;;;8.10;5.43;;;7.70;99.90;7.60;100830.00;;;;4883788;28;87782;-63
2024/03/22 05:27:38;;;;;;;6.27;5.63;;;7.70;99.90;7.70;100831.00;;;;4883219;28;87678;-63
2024/03/22 05:30:04;;;;;;;8.37;5.27;;;7.80;99.90;7.70;100836.00;;;;4877320;28;116404;-63
2024/03/22 05:32:29;;;;;;;5.83;4.53;;;7.90;99.90;7.70;100838.00;;;;4883142;28;88433;-63
2024/03/22 05:34:55;;;;;;;9.80;5.63;;;7.80;99.90;7.80;100829.00;;;;4882190;28;111638;-63
2024/03/22 05:37:21;;;;;;;6.53;4.83;;;7.90;99.90;7.80;100832.00;;;;4878786;28;107932;-63
2024/03/22 05:39:48;;;;;;;14.47;5.47;;;7.90;99.90;7.90;100818.00;;;;4877861;28;88980;-63
2024/03/22 05:42:14;;;;;;;9.27;6.50;;;8.10;99.90;7.90;100825.00;;;;4880703;28;102878;-63
2024/03/22 05:44:39;;;;;;;6.87;5.23;;;8.00;99.90;7.90;100816.00;;;;4883498;28;88910;-63
2024/03/22 05:47:05;;;;;;;6.70;5.00;;;8.00;99.90;8.00;100817.00;;;;4881745;28;107890;-63
2024/03/22 05:49:31;;;;;;;7.87;5.10;;;8.10;99.90;8.00;100824.00;;;;4880284;28;117451;-63
2024/03/22 05:51:56;;;;;;;8.20;5.27;;;8.10;99.90;8.10;100807.00;;;;4880167;28;118303;-64
2024/03/22 05:54:22;;;;;;;6.97;4.73;;;8.10;99.90;8.10;100804.00;;;;4878176;28;109434;-63
2024/03/22 05:56:48;;;;;;;10.93;5.53;;;8.20;99.90;8.10;100809.00;;;;4881265;28;108085;-64
2024/03/22 05:59:13;;;;;;;6.40;4.70;;;8.20;99.90;8.20;100806.00;;;;4879026;28;116642;-62
2024/03/22 06:01:39;;;;;;;7.50;4.33;;;8.30;99.90;8.30;100797.00;;;;4885021;28;88799;-63
2024/03/22 06:04:05;;;;;;;9.33;5.67;;;8.30;99.90;8.30;100800.00;;;;4877679;28;110858;-63
2024/03/22 06:06:35;;;;;;;6.87;3.63;;;8.50;99.90;8.40;100797.00;;;;4879849;28;105685;-63
2024/03/22 06:09:04;;;;;;;6.03;4.43;;;8.50;99.90;8.40;100799.00;;;;4879976;28;89124;-63
2024/03/22 06:11:30;;;;;;;6.23;5.27;;;8.50;99.90;8.50;100795.00;;;;4876826;28;118527;-64
2024/03/22 06:13:58;;;;;;;6.93;3.80;;;8.50;99.90;8.60;100793.00;;;;4877066;28;109827;-62
2024/03/22 06:16:24;;;;;;;8.23;5.60;;;8.70;99.90;8.60;100795.00;;;;4875862;28;108925;-63
2024/03/22 06:18:50;;;;;;;7.70;4.50;;;9.10;99.90;8.70;100787.00;;;;4876633;28;88272;-63
2024/03/22 06:21:21;;;;;;;7.20;4.60;;;8.80;99.90;8.80;100782.00;;;;4874348;28;117019;-63
2024/03/22 06:23:49;;;;;;;6.17;4.60;;;8.90;99.90;8.90;100793.00;;;;4875565;28;87830;-64
2024/03/22 06:26:15;;;;;;;7.53;5.30;;;8.90;99.90;9.00;100797.00;;;;4876717;28;86954;-62
2024/03/22 06:28:40;;;;;;;8.53;4.70;;;9.00;99.90;9.10;100782.00;;;;4875926;28;88431;-63
2024/03/22 06:31:06;;;;;;;9.57;4.57;;;9.10;99.90;9.10;100788.00;;;;4877323;28;119168;-63
2024/03/22 06:33:32;;;;;;;6.93;4.53;;;9.30;99.90;9.20;100783.00;;;;4876409;28;110322;-63
2024/03/22 06:35:57;;;;;;;7.20;4.30;;;9.70;99.90;9.30;100780.00;;;;4875268;28;95551;-63
2024/03/22 06:38:23;;;;;;;5.77;3.80;;;9.40;99.90;9.40;100782.00;;;;4876418;28;117574;-63
2024/03/22 06:40:49;;;;;;;6.07;4.37;;;9.50;99.90;9.50;100774.00;;;;4874846;28;118325;-62
2024/03/22 06:43:14;;;;;;;6.37;3.90;;;9.50;99.90;9.60;100763.00;;;;4869861;28;109093;-63
2024/03/22 06:45:40;;;;;;;8.97;4.67;;;9.60;99.90;9.60;100768.00;;;;4875927;28;106590;-63
2024/03/22 06:48:06;;;;;;;6.07;3.97;;;9.70;99.90;9.70;100775.00;;;;4874517;28;116016;-65
2024/03/22 06:50:31;;;;;;;8.77;4.07;;;9.70;99.90;9.70;100768.00;;;;4869278;28;117834;-63
2024/03/22 06:52:57;;;;;;;7.37;3.87;;;9.70;99.90;9.70;100768.00;;;;4875444;28;94671;-63
2024/03/22 06:55:23;;;;;;;6.97;3.53;;;9.70;99.90;9.70;100763.00;;;;4878077;28;107533;-64
2024/03/22 06:57:49;;;;;;;5.37;4.00;;;9.90;99.90;9.80;100761.00;;;;4873218;28;89413;-63
2024/03/22 07:00:16;;;;;;;6.37;3.70;;;10.50;99.90;9.80;100750.00;;;;4874841;28;89244;-63
2024/03/22 07:02:42;;;;;;;4.80;3.10;;;9.80;99.90;9.80;100765.00;;;;4875835;28;88789;-63
2024/03/22 07:05:08;;;;;;;6.40;3.90;;;9.90;99.90;9.80;100762.00;;;;4873943;28;88011;-63
2024/03/22 07:07:35;;;;;;;5.80;3.97;;;9.90;99.90;9.90;100755.00;;;;4877630;28;95004;-63
2024/03/22 07:10:02;;;;;;;5.47;3.23;;;9.90;99.90;9.90;100755.00;;;;4875425;28;93238;-64
2024/03/22 07:12:27;;;;;;;7.90;3.53;;;9.90;99.90;9.90;100753.00;;;;4877043;28;87885;-63
2024/03/22 07:14:53;;;;;;;5.80;3.00;;;10.00;99.90;9.90;100745.00;;;;4878396;28;87228;-63
2024/03/22 07:17:23;;;;;;;6.20;3.70;;;10.00;99.90;10.00;100741.00;;;;4872985;28;99542;-63
2024/03/22 07:19:53;;;;;;;5.97;2.97;;;10.00;99.90;10.00;100747.00;;;;4875730;28;87795;-62
2024/03/22 07:22:19;;;;;;;6.33;3.87;;;10.10;99.90;10.10;100749.00;;;;4871298;28;101488;-63
2024/03/22 07:24:45;;;;;;;5.23;2.90;;;10.10;99.90;10.10;100740.00;;;;4871291;28;98161;-62
2024/03/22 07:27:11;;;;;;;5.30;3.73;;;10.20;99.90;10.30;100742.00;;;;4876065;28;89247;-62
2024/03/22 07:29:37;;;;;;;3.90;3.10;;;10.30;99.90;10.40;100741.00;;;;4872208;28;95187;-63
2024/03/22 07:32:03;;;;;;;5.37;3.73;;;10.50;99.90;10.70;100738.00;;;;4874416;28;88105;-63
2024/03/22 07:34:29;;;;;;;6.80;3.57;;;10.60;99.90;10.90;100737.00;;;;4875056;28;100044;-63
2024/03/22 07:36:55;;;;;;;7.07;2.97;;;10.80;99.90;11.10;100730.00;;;;4877613;28;89005;-63
2024/03/22 07:39:21;;;;;;;3.93;2.70;;;11.10;99.90;11.20;100732.00;;;;4875180;28;88692;-63
2024/03/22 07:41:46;;;;;;;2.67;2.27;;;11.20;99.90;11.40;100720.00;;;;4875612;28;110542;-63
2024/03/22 07:44:12;;;;;;;4.17;3.03;;;11.30;99.90;11.50;100715.00;;;;4874438;28;109502;-63
2024/03/22 07:46:38;;;;;;;7.53;3.60;;;11.50;99.90;11.50;100727.00;;;;4876220;28;118265;-62
2024/03/22 07:49:04;;;;;;;4.60;3.63;;;11.50;99.90;11.60;100730.00;;;;4872011;28;120098;-63
2024/03/22 07:51:30;;;;;;;8.23;2.57;;;11.60;99.90;11.60;100721.00;;;;4877137;28;87849;-64
2024/03/22 07:53:56;;;;;;;5.47;3.27;;;11.60;99.90;11.70;100718.00;;;;4876397;28;100847;-63
2024/03/22 07:56:21;;;;;;;9.33;3.63;;;11.70;99.90;11.80;100722.00;;;;4872468;28;117593;-63
2024/03/22 07:58:47;;;;;;;7.07;3.07;;;11.80;99.90;11.90;100719.00;;;;4875239;28;115852;-63
2024/03/22 08:01:13;;;;;;;8.93;3.20;;;11.90;99.90;12.00;100706.00;;;;4875405;28;90220;-63
2024/03/22 08:03:39;;;;;;;6.37;3.37;;;12.00;99.90;12.00;100716.00;;;;4873044;28;105441;-64
2024/03/22 08:06:05;;;;;;;3.87;2.70;;;12.10;99.90;12.10;100718.00;;;;4874638;28;116255;-64
2024/03/22 08:08:31;;;;;;;5.37;3.33;;;12.10;99.90;12.10;100709.00;;;;4876847;28;117394;-64
2024/03/22 08:10:56;;;;;;;3.83;3.07;;;12.10;99.90;12.10;100704.00;;;;4875871;28;110040;-63
2024/03/22 08:13:22;;;;;;;4.23;3.67;;;12.10;99.90;12.10;100708.00;;;;4876508;28;88102;-62
2024/03/22 08:15:48;;;;;;;6.70;4.27;;;12.10;99.90;12.10;100711.00;;;;4873192;28;117295;-63
2024/03/22 08:18:13;;;;;;;8.20;3.70;;;12.20;99.90;12.10;100707.00;;;;4872920;28;117595;-64
2024/03/22 08:20:39;;;;;;;4.60;2.93;;;12.20;99.90;12.20;100709.00;;;;4876856;28;109574;-64
2024/03/22 08:23:05;;;;;;;5.10;4.03;;;12.20;99.90;12.20;100702.00;;;;4876581;28;108189;-64
2024/03/22 08:25:31;;;;;;;5.77;3.63;;;12.20;99.90;12.30;100701.00;;;;4872831;28;104081;-64
2024/03/22 08:27:58;;;;;;;6.70;4.30;;;12.30;99.90;12.40;100691.00;;;;4872758;28;117599;-64
2024/03/22 08:30:25;;;;;;;9.43;5.27;;;12.40;99.90;12.50;100698.00;;;;4872145;28;87865;-64
2024/03/22 08:32:51;;;;;;;5.07;4.47;;;12.40;99.90;12.50;100695.00;;;;4875694;28;87910;-64
2024/03/22 08:35:17;;;;;;;9.23;5.20;;;12.50;99.90;12.60;100691.00;;;;4873112;28;110039;-64
2024/03/22 08:37:43;;;;;;;8.53;4.70;;;12.60;99.90;12.70;100687.00;;;;4871387;28;108980;-65
2024/03/22 08:40:10;;;;;;;10.40;4.73;;;12.60;99.90;12.70;100690.00;;;;4872107;28;109997;-64
2024/03/22 08:42:36;;;;;;;6.87;5.27;;;12.70;99.90;12.70;100689.00;;;;4871016;28;99198;-65
2024/03/22 08:45:04;;;;;;;7.77;3.93;;;12.70;99.90;12.70;100689.00;;;;4873513;28;88707;-64
2024/03/22 08:47:30;;;;;;;10.07;4.90;;;12.70;99.90;12.70;100687.00;;;;4870728;28;88143;-64
2024/03/22 08:49:57;;;;;;;8.43;4.70;;;12.70;99.90;12.70;100698.00;;;;4875723;28;87983;-64
2024/03/22 08:52:26;;;;;;;8.97;4.70;;;12.70;99.90;12.60;100706.00;;;;4873978;28;87143;-64
2024/03/22 08:54:52;;;;;;;8.33;4.93;;;12.60;99.90;12.70;100703.00;;;;4872466;28;88682;-64
2024/03/22 08:57:19;;;;;;;12.93;4.90;;;12.70;99.90;12.80;100688.00;;;;4879273;28;91495;-64
2024/03/22 08:59:45;;;;;;;10.17;5.03;;;13.00;99.90;12.90;100697.00;;;;4874153;28;88699;-64
2024/03/22 09:02:11;;;;;;;7.73;4.27;;;12.90;99.90;13.10;100693.00;;;;4874337;28;87917;-63
2024/03/22 09:04:38;;;;;;;10.43;5.30;;;13.00;99.90;13.30;100682.00;;;;4872827;28;88968;-64
2024/03/22 09:07:04;;;;;;;9.37;5.53;;;13.20;99.90;13.30;100694.00;;;;4873319;28;88346;-64
2024/03/22 09:09:29;;;;;;;6.30;4.00;;;13.30;99.90;13.40;100675.00;;;;4876201;28;88191;-64
2024/03/22 09:11:55;;;;;;;7.40;5.07;;;13.40;99.90;13.40;100683.00;;;;4876300;28;107529;-64
2024/03/22 09:14:21;;;;;;;7.57;5.00;;;13.40;99.90;13.50;100670.00;;;;4874511;28;116619;-64
2024/03/22 09:16:46;;;;;;;9.50;4.53;;;13.40;99.90;13.50;100668.00;;;;4878262;28;121114;-64
2024/03/22 09:19:12;;;;;;;9.00;4.70;;;13.50;99.90;13.60;100671.00;;;;4875593;28;97873;-64
2024/03/22 09:21:37;;;;;;;7.67;4.70;;;13.50;99.90;13.60;100656.00;;;;4877536;28;109838;-64
2024/03/22 09:24:04;;;;;;;10.10;5.05;;;13.60;99.90;13.70;100658.00;;;;4876281;28;116593;-64
2024/03/22 09:26:32;;;;;;;6.73;4.40;;;13.70;99.90;13.70;100649.00;;;;4875499;28;88531;-65
2024/03/22 09:28:58;;;;;;;7.75;4.95;;;13.70;99.70;13.70;100643.00;;;;4877495;28;87825;-64
2024/03/22 09:31:24;;;;;;;10.20;4.90;;;13.70;99.70;13.80;100647.00;;;;4879565;28;87939;-64
2024/03/22 09:33:49;;;;;;;8.55;4.20;;;13.80;99.60;13.90;100646.00;;;;4874412;28;104233;-63
2024/03/22 09:36:15;;;;;;;9.93;5.97;;;13.80;99.30;14.00;100634.00;;;;4875528;28;88871;-64
2024/03/22 09:38:41;;;;;;;9.88;4.80;;;13.90;99.20;14.10;100636.00;;;;4874413;28;111015;-64
2024/03/22 09:41:07;;;;;;;6.60;4.22;;;14.10;99.10;14.40;100649.00;;;;4876176;28;87063;-65
2024/03/22 09:43:34;;;;;;;9.23;5.70;;;14.30;99.20;14.60;100655.00;;;;4872934;28;117811;-65
2024/03/22 09:46:01;;;;;;;9.07;5.13;;;14.50;98.20;14.60;100646.00;;;;4878535;28;90327;-64
2024/03/22 09:48:29;;;;;;;7.32;5.07;;;14.50;97.60;14.50;100655.00;;;;4874724;28;89054;-64
2024/03/22 09:50:55;;;;;;;11.23;5.43;;;14.50;97.50;14.50;100643.00;;;;4874985;28;108811;-64
2024/03/22 09:53:22;;;;;;;8.43;5.03;;;14.50;97.40;14.50;100639.00;;;;4871879;28;115356;-64
2024/03/22 09:55:49;;;;;;;9.55;4.88;;;14.40;97.70;14.50;100630.00;;;;4876530;28;88571;-64
2024/03/22 09:58:19;;;;;;;8.18;4.85;;;14.40;97.50;14.50;100625.00;;;;4877378;28;87780;-64
2024/03/22 10:00:44;;;;;;;12.23;5.38;;;14.50;97.50;14.60;100625.00;;;;4873598;28;87872;-63
2024/03/22 10:03:10;;;;;;;11.07;4.13;;;14.50;97.00;14.60;100624.00;;;;4874592;28;111889;-64
2024/03/22 10:05:36;;;;;;;10.20;5.30;;;14.50;97.00;14.70;100616.00;;;;4876627;28;116748;-64
2024/03/22 10:08:06;;;;;;;7.77;3.77;;;14.60;97.20;14.70;100614.00;;;;4874221;28;88144;-64
2024/03/22 10:10:33;;;;;;;7.45;4.10;;;14.60;97.40;14.80;100622.00;;;;4874475;28;101267;-64
2024/03/22 10:13:04;;;;;;;6.45;4.25;;;14.70;97.50;15.00;100616.00;;;;4878468;28;107615;-63
2024/03/22 10:15:30;;;;;;;6.53;3.47;;;14.80;97.50;15.10;100617.00;;;;4875640;28;88568;-64
2024/03/22 10:17:57;;;;;;;5.90;4.15;;;14.90;97.10;15.10;100609.00;;;;4874553;28;88560;-65
2024/03/22 10:20:23;;;;;;;9.65;4.72;;;15.00;96.30;15.10;100616.00;;;;4874464;28;88113;-65
2024/03/22 10:22:55;;;;;;;7.55;4.13;;;15.00;96.00;15.10;100604.00;;;;4872306;28;117361;-65
2024/03/22 10:25:29;;;;;;;6.30;4.15;;;15.00;96.50;15.30;100604.00;;;;4877690;28;87765;-64
2024/03/22 10:27:55;;;;;;;9.55;4.25;;;15.20;96.90;15.40;100590.00;;;;4878188;28;88437;-64
2024/03/22 10:30:24;;;;;;;4.22;3.10;;;15.30;96.20;15.50;100591.00;;;;4876155;28;88743;-64
2024/03/22 10:32:49;;;;;;;5.20;4.45;;;15.40;95.90;15.60;100588.00;;;;4875292;28;88496;-64
2024/03/22 10:35:16;;;;;;;8.40;4.05;;;15.50;95.90;15.80;100589.00;;;;4876180;28;117610;-64
2024/03/22 10:37:42;;;;;;;6.97;4.22;;;15.60;95.80;15.80;100588.00;;;;4871306;28;89038;-64
2024/03/22 10:40:09;;;;;;;7.40;4.22;;;15.70;95.20;15.80;100575.00;;;;4876649;28;91050;-64
2024/03/22 10:42:39;;;;;;;8.25;3.95;;;15.80;95.10;15.80;100569.00;;;;4878853;28;88482;-64
2024/03/22 10:45:08;;;;;;;7.57;3.53;;;15.80;95.30;15.80;100570.00;;;;4874077;28;90453;-64
2024/03/22 10:47:36;;;;;;;5.00;3.67;;;15.70;95.10;15.70;100569.00;;;;4877643;28;91618;-64
2024/03/22 10:50:07;;;;;;;7.45;3.45;;;15.70;94.90;15.60;100564.00;;;;4876990;28;87712;-64
2024/03/22 10:52:52;;;;;;;9.38;4.22;;;15.60;94.60;15.50;100555.00;;;;4870976;28;88425;-64
2024/03/22 10:55:30;;;;;;;6.88;3.38;;;15.50;95.10;15.40;100558.00;;;;4872356;28;107342;-65
2024/03/22 10:57:57;;;;;;;5.82;3.33;;;15.50;95.00;15.30;100557.00;;;;4870127;28;87823;-64
2024/03/22 11:00:30;;;;;;;7.22;3.05;;;15.30;94.80;15.20;100552.00;;;;4876855;28;87783;-64
2024/03/22 11:02:56;;;;;;;9.18;4.85;;;15.20;94.90;15.10;100557.00;;;;4873641;28;89064;-64
2024/03/22 11:05:22;;;;;;;3.88;3.20;;;15.10;95.20;15.10;100560.00;;;;4877840;28;103112;-64
2024/03/22 11:07:58;;;;;;;5.80;3.30;;;15.10;95.50;15.00;100544.00;;;;4881748;28;94382;-64
2024/03/22 11:10:32;;;;;;;6.80;3.78;;;15.00;95.60;15.00;100542.00;;;;4879991;28;87962;-64
2024/03/22 11:13:06;;;;;;;6.38;3.47;;;15.00;95.80;15.00;100537.00;;;;4879877;28;88690;-64
2024/03/22 11:15:33;;;;;;;4.85;3.75;;;15.00;96.10;15.10;100540.00;;;;4881559;28;88252;-64
2024/03/22 11:17:59;;;;;;;3.63;2.90;;;15.00;96.10;15.10;100523.00;;;;4873320;28;87742;-64
2024/03/22 11:20:26;;;;;;;8.48;3.72;;;15.00;96.10;15.10;100528.00;;;;4879528;28;87264;-65
2024/03/22 11:22:52;;;;;;;7.18;3.50;;;15.00;96.20;15.10;100531.00;;;;4874173;28;88522;-65
2024/03/22 11:25:20;;;;;;;12.10;4.30;;;15.10;96.30;15.20;100521.00;;;;4876954;28;120704;-64
2024/03/22 11:27:46;;;;;;;7.93;3.58;;;15.10;96.20;15.20;100530.00;;;;4872161;28;88883;-64
2024/03/22 11:30:12;;;;;;;4.43;3.13;;;15.10;96.10;15.20;100511.00;;;;4874835;28;96679;-65
2024/03/22 11:32:44;;;;;;;8.52;3.58;;;15.20;96.00;15.20;100510.00;;;;4873429;28;87806;-64
2024/03/22 11:35:11;;;;;;;4.57;2.88;;;15.20;95.50;15.20;100516.00;;;;4873891;28;88863;-64
2024/03/22 11:37:38;;;;;;;4.22;3.20;;;15.20;95.50;15.20;100508.00;;;;4871697;28;88002;-64
2024/03/22 11:40:05;;;;;;;5.72;3.20;;;15.20;95.60;15.20;100494.00;;;;4872862;28;88078;-64
2024/03/22 11:42:33;;;;;;;13.20;3.72;;;15.20;95.80;15.30;100494.00;;;;4877924;28;89140;-64
2024/03/22 11:45:00;;;;;;;9.13;3.25;;;15.20;95.70;15.30;100497.00;;;;4875855;28;116515;-64
2024/03/22 11:47:25;;;;;;;6.47;3.22;;;15.60;95.70;15.40;100487.00;;;;4872320;28;103280;-65
2024/03/22 11:49:51;;;;;;;4.53;2.88;;;15.30;95.60;15.40;100489.00;;;;4880978;28;88027;-64
2024/03/22 11:52:17;;;;;;;5.72;3.17;;;15.40;95.40;15.50;100480.00;;;;4883006;28;118020;-64
2024/03/22 11:54:42;;;;;;;4.40;2.55;;;15.40;95.20;15.50;100479.00;;;;4872482;28;118320;-64
2024/03/22 11:57:09;;;;;;;5.30;3.50;;;15.40;95.20;15.50;100469.00;;;;4876919;28;110761;-63
2024/03/22 11:59:35;;;;;;;6.28;3.63;;;15.50;95.20;15.60;100474.00;;;;4877138;28;87912;-64
2024/03/22 12:02:01;;;;;;;4.30;2.33;;;15.50;95.50;15.70;100459.00;;;;4873244;28;88478;-64
2024/03/22 12:04:26;;;;;;;5.25;3.65;;;15.50;95.40;15.80;100468.00;;;;4869023;28;102491;-64
2024/03/22 12:06:53;;;;;;;5.47;3.05;;;15.70;95.50;15.80;100460.00;;;;4872885;28;109379;-65
2024/03/22 12:09:19;;;;;;;4.13;2.95;;;15.70;95.10;15.80;100455.00;;;;4872283;28;86988;-64
2024/03/22 12:11:45;;;;;;;5.63;3.35;;;15.80;94.30;15.80;100449.00;;;;4872328;28;117232;-65
2024/03/22 12:14:10;;;;;;;5.57;3.25;;;15.70;94.20;15.70;100455.00;;;;4875600;28;116918;-65
2024/03/22 12:16:36;;;;;;;4.95;3.25;;;15.70;94.30;15.70;100452.00;;;;4873920;28;110588;-63
2024/03/22 12:19:03;;;;;;;6.95;2.85;;;15.70;94.30;15.80;100447.00;;;;4874622;28;88043;-65
2024/03/22 12:21:28;;;;;;;8.20;4.32;;;15.70;94.20;15.80;100441.00;;;;4879520;28;89127;-65
2024/03/22 12:23:54;;;;;;;15.40;3.55;;;15.70;94.40;15.80;100437.00;;;;4876505;28;118360;-65
2024/03/22 12:26:20;;;;;;;4.30;2.85;;;15.80;94.50;15.90;100426.00;;;;4875003;28;110217;-66
2024/03/22 12:28:46;;;;;;;7.88;2.58;;;15.80;94.30;15.90;100424.00;;;;4875001;28;108411;-63
2024/03/22 12:31:12;;;;;;;3.78;2.40;;;15.80;94.20;16.00;100425.00;;;;4877239;28;89463;-65
2024/03/22 12:33:37;;;;;;;6.32;3.38;;;15.90;94.20;16.10;100418.00;;;;4873086;28;118504;-64
2024/03/22 12:36:04;;;;;;;11.73;3.90;;;15.90;94.40;16.20;100412.00;;;;4876561;28;87963;-64
2024/03/22 12:38:30;;;;;;;4.80;3.17;;;16.00;94.10;16.30;100417.00;;;;4874191;28;88526;-64
2024/03/22 12:40:56;;;;;;;5.85;3.17;;;16.10;93.90;16.30;100414.00;;;;4875069;28;90014;-63
2024/03/22 12:43:22;;;;;;;6.78;3.42;;;16.50;94.20;16.40;100404.00;;;;4869844;28;104076;-64
2024/03/22 12:45:47;;;;;;;10.60;3.97;;;16.30;93.20;16.40;100391.00;;;;4871446;28;110852;-64